createdAt,value
2023-01-12T00:02:26.898Z,95820.16
2023-01-12T00:05:15.238Z,95830.78
2023-01-12T00:08:01.232Z,95819.16
2023-01-12T00:10:47.149Z,95816.69
2023-01-12T00:13:33.452Z,95812.13
2023-01-12T00:16:41.062Z,95821.50
2023-01-12T00:19:26.857Z,95826.31
2023-01-12T00:22:12.814Z,95834.94
2023-01-12T00:24:58.468Z,95830.63
2023-01-12T00:27:44.248Z,95826.97
2023-01-12T00:30:31.207Z,95826.16
2023-01-12T00:33:17.105Z,95839.97
2023-01-12T00:36:05.031Z,95838.97
2023-01-12T00:38:50.882Z,95837.84
2023-01-12T00:41:56.180Z,95845.34
2023-01-12T00:45:00.201Z,95851.50
2023-01-12T00:47:46.199Z,95846.00
2023-01-12T00:50:32.094Z,95841.81
2023-01-12T00:53:18.050Z,95836.38
2023-01-12T00:56:05.131Z,95824.69
2023-01-12T00:58:51.150Z,95846.84
2023-01-12T01:01:37.403Z,95845.38
2023-01-12T01:04:23.605Z,95844.84
2023-01-12T01:07:09.648Z,95847.50
2023-01-12T01:09:55.640Z,95846.84
2023-01-12T01:12:41.932Z,95844.38
2023-01-12T01:15:27.994Z,95846.84
2023-01-12T01:18:13.880Z,95840.16
2023-01-12T01:20:59.754Z,95829.69
2023-01-12T01:23:45.677Z,95830.69
2023-01-12T01:26:31.919Z,95831.66
2023-01-12T01:29:18.115Z,95806.53
2023-01-12T01:32:04.885Z,95827.19
2023-01-12T01:34:50.877Z,95799.38
2023-01-12T01:37:36.621Z,95834.53
2023-01-12T01:40:22.480Z,95829.69
2023-01-12T01:43:13.569Z,95826.19
2023-01-12T01:46:10.132Z,95823.00
2023-01-12T01:48:57.004Z,95828.03
2023-01-12T01:51:44.060Z,95816.41
2023-01-12T01:54:34.032Z,95815.69
2023-01-12T01:57:20.912Z,95811.72
2023-01-12T02:00:08.202Z,95821.72
2023-01-12T02:02:54.769Z,95818.69
2023-01-12T02:05:44.192Z,95826.66
2023-01-12T02:08:44.729Z,95833.94
2023-01-12T02:11:49.233Z,95806.66
2023-01-12T02:14:53.887Z,95821.56
2023-01-12T02:18:19.669Z,95817.00
2023-01-12T02:21:11.001Z,95822.75
2023-01-12T02:24:40.524Z,95825.09
2023-01-12T02:27:30.930Z,95815.63
2023-01-12T02:30:35.783Z,95830.31
2023-01-12T02:33:36.800Z,95828.56
2023-01-12T02:36:45.796Z,95819.16
2023-01-12T02:39:59.945Z,95822.44
2023-01-12T02:43:13.282Z,95818.13
2023-01-12T02:45:59.330Z,95822.97
2023-01-12T02:49:00.392Z,95821.13
2023-01-12T02:51:51.648Z,95828.28
2023-01-12T02:54:37.723Z,95826.63
2023-01-12T02:57:23.918Z,95821.75
2023-01-12T03:00:10.497Z,95813.66
2023-01-12T03:02:56.516Z,95827.00
2023-01-12T03:05:45.945Z,95830.97
2023-01-12T03:08:33.023Z,95829.47
2023-01-12T03:11:20.992Z,95817.31
2023-01-12T03:14:07.907Z,95827.63
2023-01-12T03:16:54.995Z,95821.63
2023-01-12T03:19:42.072Z,95822.53
2023-01-12T03:22:29.484Z,95826.81
2023-01-12T03:25:17.671Z,95823.16
2023-01-12T03:28:05.310Z,95830.88
2023-01-12T03:30:57.150Z,95816.72
2023-01-12T03:33:43.973Z,95832.72
2023-01-12T03:37:12.787Z,95836.84
2023-01-12T03:40:19.826Z,95846.34
2023-01-12T03:43:31.509Z,95828.16
2023-01-12T03:46:42.133Z,95834.31
2023-01-12T03:49:44.672Z,95831.94
2023-01-12T03:52:31.274Z,95825.53
2023-01-12T03:55:19.612Z,95820.97
2023-01-12T03:58:05.755Z,95827.34
2023-01-12T04:00:51.818Z,95841.97
2023-01-12T04:03:37.897Z,95835.53
2023-01-12T04:06:23.775Z,95832.56
2023-01-12T04:09:09.612Z,95844.53
2023-01-12T04:12:10.530Z,95846.53
2023-01-12T04:14:56.465Z,95843.88
2023-01-12T04:17:42.558Z,95843.41
2023-01-12T04:20:28.291Z,95847.28
2023-01-12T04:23:14.243Z,95856.31
2023-01-12T04:26:00.356Z,95850.00
2023-01-12T04:28:46.271Z,95849.31
2023-01-12T04:31:32.264Z,95847.66
2023-01-12T04:34:18.237Z,95844.38
2023-01-12T04:37:04.124Z,95845.44
2023-01-12T04:39:49.953Z,95849.25
2023-01-12T04:42:54.595Z,95859.88
2023-01-12T04:45:43.623Z,95867.69
2023-01-12T04:48:29.662Z,95867.31
2023-01-12T04:51:15.617Z,95852.03
2023-01-12T04:54:01.471Z,95861.00
2023-01-12T04:56:47.178Z,95856.78
2023-01-12T04:59:32.975Z,95866.25
2023-01-12T05:02:18.842Z,95854.94
2023-01-12T05:05:05.528Z,95860.53
2023-01-12T05:08:10.358Z,95860.75
2023-01-12T05:10:59.017Z,95867.25
2023-01-12T05:13:44.942Z,95849.28
2023-01-12T05:16:30.905Z,95859.63
2023-01-12T05:19:16.945Z,95848.44
2023-01-12T05:22:02.712Z,95852.75
2023-01-12T05:24:48.591Z,95869.50
2023-01-12T05:27:34.542Z,95863.91
2023-01-12T05:30:20.700Z,95868.22
2023-01-12T05:33:06.591Z,95853.28
2023-01-12T05:35:52.266Z,95866.31
2023-01-12T05:38:38.393Z,95871.09
2023-01-12T05:41:24.186Z,95872.63
2023-01-12T05:44:10.055Z,95886.28
2023-01-12T05:46:55.869Z,95878.44
2023-01-12T05:49:41.730Z,95872.00
2023-01-12T05:52:27.716Z,95858.88
2023-01-12T05:55:13.513Z,95874.72
2023-01-12T05:57:59.809Z,95869.78
2023-01-12T06:00:45.665Z,95883.44
2023-01-12T06:03:31.583Z,95885.47
2023-01-12T06:06:18.986Z,95875.84
2023-01-12T06:09:05.277Z,95875.66
2023-01-12T06:12:09.920Z,95878.19
2023-01-12T06:14:55.468Z,95891.03
2023-01-12T06:17:41.326Z,95894.03
2023-01-12T06:20:27.129Z,95881.72
2023-01-12T06:23:13.091Z,95894.53
2023-01-12T06:26:03.906Z,95896.25
2023-01-12T06:28:50.517Z,95897.56
2023-01-12T06:31:37.986Z,95900.09
2023-01-12T06:34:23.939Z,95877.47
2023-01-12T06:37:12.044Z,95889.91
2023-01-12T06:39:58.106Z,95891.75
2023-01-12T06:42:44.259Z,95895.38
2023-01-12T06:45:30.073Z,95903.75
2023-01-12T06:48:15.834Z,95894.41
2023-01-12T06:51:02.359Z,95892.34
2023-01-12T06:53:48.467Z,95902.53
2023-01-12T06:56:34.424Z,95905.50
2023-01-12T06:59:20.523Z,95898.91
2023-01-12T07:02:06.388Z,95900.56
2023-01-12T07:04:52.238Z,95906.00
2023-01-12T07:07:40.293Z,95910.50
2023-01-12T07:10:27.043Z,95904.81
2023-01-12T07:13:12.901Z,95911.66
2023-01-12T07:16:00.136Z,95911.34
2023-01-12T07:18:47.214Z,95916.19
2023-01-12T07:21:33.302Z,95906.88
2023-01-12T07:24:19.265Z,95908.53
2023-01-12T07:27:05.207Z,95912.22
2023-01-12T07:29:51.184Z,95920.75
2023-01-12T07:32:37.105Z,95913.59
2023-01-12T07:35:25.132Z,95917.59
2023-01-12T07:38:12.186Z,95920.09
2023-01-12T07:41:00.446Z,95916.47
2023-01-12T07:43:46.585Z,95921.56
2023-01-12T07:46:32.534Z,95909.09
2023-01-12T07:49:18.555Z,95913.59
2023-01-12T07:52:04.625Z,95920.56
2023-01-12T07:54:50.788Z,95930.75
2023-01-12T07:57:37.369Z,95936.59
2023-01-12T08:00:24.429Z,95934.25
2023-01-12T08:03:12.424Z,95932.56
2023-01-12T08:06:00.256Z,95955.69
2023-01-12T08:08:46.139Z,95943.22
2023-01-12T08:11:32.728Z,95940.88
2023-01-12T08:14:39.336Z,95958.72
2023-01-12T08:17:25.190Z,95957.13
2023-01-12T08:20:16.206Z,95965.22
2023-01-12T08:23:10.048Z,95957.88
2023-01-12T08:26:02.216Z,95956.16
2023-01-12T08:28:53.278Z,95966.22
2023-01-12T08:31:39.269Z,95966.75
2023-01-12T08:34:42.038Z,95966.28
2023-01-12T08:37:29.343Z,95964.16
2023-01-12T08:40:15.456Z,95973.41
2023-01-12T08:43:01.422Z,95969.03
2023-01-12T08:45:47.364Z,95964.94
2023-01-12T08:48:33.344Z,95975.59
2023-01-12T08:51:20.199Z,95970.66
2023-01-12T08:54:07.383Z,95978.84
2023-01-12T08:56:54.869Z,95976.53
2023-01-12T08:59:41.036Z,95962.53
2023-01-12T09:02:27.193Z,95976.41
2023-01-12T09:05:13.460Z,95981.09
2023-01-12T09:07:59.478Z,95957.25
2023-01-12T09:10:45.284Z,95979.47
2023-01-12T09:13:33.021Z,95974.28
2023-01-12T09:16:19.840Z,95967.00
2023-01-12T09:19:06.417Z,95976.03
2023-01-12T09:21:52.316Z,95975.72
2023-01-12T09:24:38.255Z,95977.22
2023-01-12T09:27:23.992Z,95965.25
2023-01-12T09:30:10.771Z,95966.78
2023-01-12T09:32:56.925Z,95957.56
2023-01-12T09:35:44.556Z,95960.94
2023-01-12T09:38:30.949Z,95940.72
2023-01-12T09:41:48.097Z,95937.72
2023-01-12T09:44:58.370Z,95938.41
2023-01-12T09:48:00.910Z,95936.94
2023-01-12T09:51:05.298Z,95941.09
2023-01-12T09:53:51.449Z,95933.72
2023-01-12T09:56:41.473Z,95948.97
2023-01-12T09:59:56.890Z,95932.59
2023-01-12T10:02:47.278Z,95942.78
2023-01-12T10:05:44.736Z,95910.53
2023-01-12T10:08:36.839Z,95942.38
2023-01-12T10:11:27.197Z,95938.13
2023-01-12T10:14:35.098Z,95920.41
2023-01-12T10:17:42.317Z,95926.13
2023-01-12T10:20:44.275Z,95916.47
2023-01-12T10:23:30.889Z,95921.78
2023-01-12T10:26:34.297Z,95927.63
2023-01-12T10:29:21.195Z,95923.78
2023-01-12T10:32:10.555Z,95921.97
2023-01-12T10:34:56.458Z,95920.81
2023-01-12T10:37:56.210Z,95917.97
2023-01-12T10:40:42.085Z,95908.97
2023-01-12T10:43:34.059Z,95909.16
2023-01-12T10:46:26.893Z,95906.16
2023-01-12T10:49:19.287Z,95911.66
2023-01-12T10:52:28.293Z,95889.19
2023-01-12T10:55:22.817Z,95898.19
2023-01-12T10:58:23.872Z,95895.00
2023-01-12T11:01:13.789Z,95890.84
2023-01-12T11:04:06.196Z,95885.34
2023-01-12T11:07:05.389Z,95881.16
2023-01-12T11:09:51.706Z,95868.34
2023-01-12T11:12:41.083Z,95883.66
2023-01-12T11:15:28.499Z,95889.16
2023-01-12T11:18:41.451Z,95889.16
2023-01-12T11:21:32.617Z,95889.16
2023-01-12T11:24:40.244Z,95886.81
2023-01-12T11:27:32.018Z,95877.16
2023-01-12T11:30:21.124Z,95859.31
2023-01-12T11:33:14.033Z,95872.47
2023-01-12T11:36:05.333Z,95873.47
2023-01-12T11:38:54.108Z,95863.31
2023-01-12T11:42:17.491Z,95875.81
2023-01-12T11:45:17.944Z,95876.31
2023-01-12T11:48:17.373Z,95876.00
2023-01-12T11:51:03.562Z,95870.66
2023-01-12T11:53:50.092Z,95874.16
2023-01-12T11:56:39.271Z,95878.97
2023-01-12T11:59:28.060Z,95874.16
2023-01-12T12:02:33.366Z,95854.81
2023-01-12T12:05:40.474Z,95866.00
2023-01-12T12:08:33.739Z,95871.84
2023-01-12T12:11:34.928Z,95874.84
2023-01-12T12:14:43.183Z,95846.81
2023-01-12T12:18:07.056Z,95850.16
2023-01-12T12:21:16.074Z,95869.50
2023-01-12T12:24:30.679Z,95867.66
2023-01-12T12:27:32.844Z,95871.34
2023-01-12T12:30:41.020Z,95861.31
2023-01-12T12:33:37.483Z,95864.50
2023-01-12T12:36:39.541Z,95862.16
2023-01-12T12:39:25.886Z,95861.31
2023-01-12T12:42:42.927Z,95855.84
2023-01-12T12:45:48.117Z,95871.47
2023-01-12T12:48:44.936Z,95866.16
2023-01-12T12:51:33.131Z,95852.66
2023-01-12T12:54:21.219Z,95852.84
2023-01-12T12:57:07.366Z,95843.16
2023-01-12T12:59:59.767Z,95857.81
2023-01-12T13:02:55.736Z,95859.34
2023-01-12T13:05:47.329Z,95851.16
2023-01-12T13:08:35.066Z,95851.28
2023-01-12T13:11:21.600Z,95863.97
2023-01-12T13:14:19.246Z,95864.31
2023-01-12T13:17:34.274Z,95871.16
2023-01-12T13:20:25.780Z,95874.28
2023-01-12T13:23:44.920Z,95871.31
2023-01-12T13:26:35.013Z,95866.81
2023-01-12T13:29:24.049Z,95873.31
2023-01-12T13:32:35.403Z,95881.50
2023-01-12T13:35:33.964Z,95860.16
2023-01-12T13:38:43.964Z,95882.81
2023-01-12T13:41:52.376Z,95857.81
2023-01-12T13:44:40.186Z,95876.31
2023-01-12T13:47:30.501Z,95866.31
2023-01-12T13:50:22.879Z,95861.69
2023-01-12T13:53:21.925Z,95860.47
2023-01-12T13:56:19.500Z,95879.50
2023-01-12T13:59:07.906Z,95876.50
2023-01-12T14:01:54.531Z,95866.69
2023-01-12T14:04:50.341Z,95880.50
2023-01-12T14:07:55.140Z,95880.81
2023-01-12T14:10:56.021Z,95860.34
2023-01-12T14:14:30.542Z,95881.81
2023-01-12T14:17:43.655Z,95885.16
2023-01-12T14:20:34.238Z,95880.19
2023-01-12T14:23:31.163Z,95878.81
2023-01-12T14:26:22.968Z,95883.84
2023-01-12T14:29:13.216Z,95853.50
2023-01-12T14:31:59.155Z,95878.69
2023-01-12T14:34:54.740Z,95870.34
2023-01-12T14:37:41.186Z,95878.16
2023-01-12T14:40:32.478Z,95881.34
2023-01-12T14:43:37.463Z,95875.66
2023-01-12T14:46:33.694Z,95876.16
2023-01-12T14:49:28.753Z,95877.50
2023-01-12T14:52:17.455Z,95891.00
2023-01-12T14:55:26.277Z,95902.81
2023-01-12T14:58:21.202Z,95906.81
2023-01-12T15:01:07.563Z,95894.16
2023-01-12T15:03:54.315Z,95903.50
2023-01-12T15:06:42.006Z,95918.16
2023-01-12T15:09:31.832Z,95917.97
2023-01-12T15:12:25.059Z,95940.97
2023-01-12T15:15:21.894Z,95911.28
2023-01-12T15:18:26.765Z,95932.81
2023-01-12T15:21:31.465Z,95919.16
2023-01-12T15:24:39.244Z,95936.47
2023-01-12T15:27:36.652Z,95929.81
2023-01-12T15:30:22.894Z,95923.28
2023-01-12T15:33:09.307Z,95934.78
2023-01-12T15:35:58.560Z,95927.13
2023-01-12T15:38:45.040Z,95933.94
2023-01-12T15:41:50.776Z,95937.13
2023-01-12T15:44:38.511Z,95935.78
2023-01-12T15:47:24.470Z,95942.28
2023-01-12T15:50:10.891Z,95939.25
2023-01-12T15:52:59.891Z,95958.09
2023-01-12T15:55:46.232Z,95935.41
2023-01-12T15:58:32.069Z,95950.28
2023-01-12T16:01:19.184Z,95966.94
2023-01-12T16:04:40.465Z,95957.28
2023-01-12T16:07:11.486Z,95956.25
2023-01-12T16:09:57.896Z,95962.78
2023-01-12T16:12:48.064Z,95946.78
2023-01-12T16:15:33.994Z,95964.59
2023-01-12T16:18:20.008Z,95960.09
2023-01-12T16:21:05.990Z,95947.59
2023-01-12T16:23:52.011Z,95959.13
2023-01-12T16:26:37.803Z,95967.28
2023-01-12T16:29:24.470Z,95969.31
2023-01-12T16:32:10.451Z,95965.63
2023-01-12T16:34:56.449Z,95954.28
2023-01-12T16:37:42.651Z,95966.78
2023-01-12T16:40:28.572Z,95978.44
2023-01-12T16:43:14.327Z,95972.47
2023-01-12T16:46:02.179Z,95961.78
2023-01-12T16:48:48.506Z,95982.78
2023-01-12T16:51:34.999Z,95975.03
2023-01-12T16:54:21.307Z,95993.50
2023-01-12T16:57:07.577Z,95995.50
2023-01-12T16:59:53.457Z,95996.53
2023-01-12T17:02:40.021Z,95983.03
2023-01-12T17:05:26.265Z,95983.69
2023-01-12T17:08:12.430Z,95995.69
2023-01-12T17:11:04.980Z,95993.38
2023-01-12T17:13:53.374Z,95984.84
2023-01-12T17:16:39.108Z,95997.69
2023-01-12T17:19:27.323Z,95979.00
2023-01-12T17:22:13.678Z,96006.44
2023-01-12T17:25:07.110Z,95993.03
2023-01-12T17:27:52.892Z,96008.53
2023-01-12T17:30:39.696Z,96002.28
2023-01-12T17:33:25.690Z,96009.44
2023-01-12T17:36:12.783Z,96006.94
2023-01-12T17:38:59.365Z,95990.09
2023-01-12T17:42:03.656Z,96000.09
2023-01-12T17:44:49.837Z,96004.44
2023-01-12T17:47:35.627Z,96003.44
2023-01-12T17:50:21.353Z,96006.78
2023-01-12T17:53:09.500Z,96004.09
2023-01-12T17:55:55.415Z,96006.78
2023-01-12T17:58:41.385Z,96004.88
2023-01-12T18:01:32.112Z,96014.25
2023-01-12T18:04:18.184Z,96000.16
2023-01-12T18:07:04.448Z,96010.44
2023-01-12T18:09:50.313Z,95996.25
2023-01-12T18:12:36.205Z,95987.06
2023-01-12T18:15:22.028Z,95986.06
2023-01-12T18:18:07.912Z,96002.59
2023-01-12T18:20:55.349Z,96001.00
2023-01-12T18:23:44.548Z,96006.38
2023-01-12T18:26:35.714Z,95992.84
2023-01-12T18:29:21.514Z,95983.00
2023-01-12T18:32:07.750Z,96004.56
2023-01-12T18:34:53.509Z,95980.31
2023-01-12T18:37:39.506Z,96014.25
2023-01-12T18:40:25.239Z,96011.94
2023-01-12T18:43:11.247Z,95995.84
2023-01-12T18:46:03.970Z,96010.44
2023-01-12T18:48:49.948Z,95996.97
2023-01-12T18:51:54.458Z,96003.81
2023-01-12T18:54:51.941Z,95998.31
2023-01-12T18:57:38.272Z,95997.66
2023-01-12T19:00:24.228Z,96014.66
2023-01-12T19:03:10.282Z,96001.63
2023-01-12T19:06:20.191Z,96005.31
2023-01-12T19:09:27.583Z,96006.81
2023-01-12T19:12:21.499Z,96010.97
2023-01-12T19:15:27.626Z,96018.66
2023-01-12T19:18:14.076Z,96014.34
2023-01-12T19:21:23.002Z,96011.63
2023-01-12T19:24:29.617Z,96005.81
2023-01-12T19:27:34.232Z,96019.66
2023-01-12T19:30:20.131Z,96001.16
2023-01-12T19:33:14.832Z,96018.56
2023-01-12T19:36:05.921Z,96032.19
2023-01-12T19:38:52.857Z,96019.22
2023-01-12T19:41:57.536Z,96023.19
2023-01-12T19:44:44.856Z,96022.91
2023-01-12T19:47:31.123Z,96023.78
2023-01-12T19:50:17.311Z,96024.59
2023-01-12T19:53:04.920Z,96020.59
2023-01-12T19:55:51.122Z,96010.00
2023-01-12T19:58:37.388Z,96014.84
2023-01-12T20:01:24.221Z,96021.59
2023-01-12T20:04:10.298Z,96006.91
2023-01-12T20:06:57.122Z,96027.28
2023-01-12T20:09:43.663Z,96013.59
2023-01-12T20:12:30.678Z,96016.59
2023-01-12T20:15:18.253Z,96006.06
2023-01-12T20:18:05.222Z,96019.94
2023-01-12T20:20:53.658Z,96014.44
2023-01-12T20:23:40.570Z,96001.63
2023-01-12T20:26:26.688Z,96011.28
2023-01-12T20:29:13.129Z,96020.63
2023-01-12T20:32:03.062Z,96025.13
2023-01-12T20:34:49.537Z,96014.94
2023-01-12T20:37:35.721Z,96013.94
2023-01-12T20:40:22.085Z,96020.16
2023-01-12T20:43:07.973Z,96007.09
2023-01-12T20:45:53.822Z,96025.25
2023-01-12T20:48:43.857Z,96024.41
2023-01-12T20:51:30.677Z,96015.56
2023-01-12T20:54:16.765Z,96034.78
2023-01-12T20:57:02.823Z,96013.59
2023-01-12T20:59:49.065Z,96034.78
2023-01-12T21:02:35.936Z,96023.94
2023-01-12T21:05:21.768Z,96032.31
2023-01-12T21:08:08.683Z,96004.94
2023-01-12T21:10:55.162Z,96014.13
2023-01-12T21:13:41.576Z,96014.81
2023-01-12T21:16:27.510Z,96018.84
2023-01-12T21:19:13.463Z,96011.69
2023-01-12T21:21:59.749Z,96017.03
2023-01-12T21:24:46.412Z,96021.81
2023-01-12T21:27:33.914Z,96011.16
2023-01-12T21:30:20.114Z,96015.66
2023-01-12T21:33:05.982Z,96006.66
2023-01-12T21:35:56.781Z,96007.34
2023-01-12T21:38:42.784Z,96013.34
2023-01-12T21:41:28.598Z,96018.00
2023-01-12T21:44:14.725Z,96008.19
2023-01-12T21:47:00.821Z,96001.63
2023-01-12T21:49:46.683Z,96011.69
2023-01-12T21:52:33.294Z,96002.63
2023-01-12T21:55:20.089Z,96008.50
2023-01-12T21:58:06.268Z,96011.16
2023-01-12T22:00:52.314Z,96005.81
2023-01-12T22:03:38.704Z,96001.31
2023-01-12T22:06:24.892Z,96014.84
2023-01-12T22:09:10.778Z,95997.00
2023-01-12T22:11:56.678Z,96007.84
2023-01-12T22:14:42.408Z,96006.34
2023-01-12T22:17:28.485Z,95997.47
2023-01-12T22:20:16.600Z,96005.53
2023-01-12T22:23:02.976Z,95993.66
2023-01-12T22:25:48.874Z,95997.47
2023-01-12T22:28:35.836Z,95998.97
2023-01-12T22:31:23.637Z,95995.47
2023-01-12T22:34:12.932Z,95987.47
2023-01-12T22:36:58.961Z,95994.81
2023-01-12T22:39:44.766Z,95991.66
2023-01-12T22:42:49.224Z,95983.81
2023-01-12T22:45:37.546Z,95990.97
2023-01-12T22:48:25.639Z,95982.00
2023-01-12T22:51:11.711Z,95991.19
2023-01-12T22:53:58.156Z,95986.34
2023-01-12T22:56:46.052Z,95991.19
2023-01-12T22:59:32.181Z,95988.34
2023-01-12T23:02:36.703Z,95982.50
2023-01-12T23:05:22.811Z,95990.19
2023-01-12T23:08:09.020Z,95984.69
2023-01-12T23:11:14.100Z,95982.84
2023-01-12T23:14:00.344Z,95972.00
2023-01-12T23:16:49.176Z,95997.34
2023-01-12T23:19:35.297Z,95992.69
2023-01-12T23:22:21.548Z,95986.53
2023-01-12T23:25:07.793Z,95994.69
2023-01-12T23:27:53.899Z,96009.38
2023-01-12T23:30:40.715Z,96002.03
2023-01-12T23:33:26.520Z,96005.34
2023-01-12T23:36:14.641Z,95993.16
2023-01-12T23:39:02.647Z,95986.00
2023-01-12T23:41:48.782Z,95975.81
2023-01-12T23:44:34.770Z,95984.47
2023-01-12T23:47:20.830Z,95991.28
2023-01-12T23:50:07.142Z,95986.78
2023-01-12T23:52:53.119Z,95989.91
2023-01-12T23:55:39.571Z,95990.94
2023-01-12T23:58:25.405Z,95991.94
